Latest Weather Observations for Lockhart River

IDQ60801

Issued at 6:32 pm EST Tuesday 17 January 2017 (issued every 30 minutes, with the page automatically refreshed every 10 minutes)

About weather observations | Map of weather stations | Latest weather observations for QLD | Other Formats
Station Details ID: 028008 Name: LOCKHART RIVER AIRPORT Lat: -12.79 Lon: 143.30 Height: 18.5 m
Data from the previous 72 hours. | See also: Recent months at Lockhart River
Date/Time
EST
Temp
°C
App
Temp
°C
Dew
Point
°C
Rel
Hum
%
Delta-T
°C
Wind Press
QNH
hPa
Press
MSL
hPa
Rain since
9am
mm
Dir  Spd
km/h
Gust
km/h
Spd
kts
Gust
kts
17/06:00pm 29.4 32.4 24.0 72 3.7 E 15 20 8 11 1009.1 1009.0 0.0
17/05:30pm 29.8 32.5 23.5 69 4.3 E 15 22 8 12 1008.7 1008.6 0.0
17/05:00pm 29.9 33.1 24.3 72 3.9 E 15 22 8 12 1008.6 1008.5 0.0
17/04:30pm 30.1 33.4 24.5 72 3.9 E 15 24 8 13 1008.5 1008.4 0.0
17/04:00pm 29.6 32.3 24.2 73 3.8 E 17 24 9 13 1008.5 1008.4 0.0
17/03:30pm 30.4 34.1 25.7 76 3.3 E 17 22 9 12 1008.6 1008.5 0.0
17/03:00pm 30.5 32.7 23.9 68 4.6 E 19 24 10 13 1008.8 1008.7 0.0
17/02:30pm 31.8 35.9 23.9 63 5.5 E 9 19 5 10 1009.0 1008.9 0.0
17/02:00pm 31.2 35.1 24.3 66 4.8 ENE 11 19 6 10 1009.5 1009.4 0.0
17/01:30pm 30.7 35.0 22.6 62 5.5 NNW 4 7 2 4 1010.0 1009.9 0.0
17/01:00pm 30.1 35.0 24.3 71 4.0 NE 6 9 3 5 1010.6 1010.5 0.0
17/12:30pm 29.2 35.2 24.3 75 3.4 CALM 0 0 0 0 1010.9 1010.8 0.0
17/12:00pm 28.9 34.9 24.9 79 2.8 WNW 2 7 1 4 1011.1 1011.0 0.0
17/11:30am 28.3 34.2 24.7 81 2.5 SSE 2 6 1 3 1011.4 1011.3 0.0
17/11:00am 27.5 34.1 25.3 88 1.5 CALM 0 0 0 0 1011.8 1011.7 0.0
17/10:30am 26.5 33.1 25.3 93 0.8 CALM 0 0 0 0 1012.3 1012.2 0.0
17/10:00am 25.6 31.5 24.7 95 0.6 NW 2 6 1 3 1012.6 1012.5 0.0
17/09:30am 25.0 30.1 24.7 98 0.2 NW 6 7 3 4 1012.6 1012.5 0.0
17/09:00am 24.6 29.5 24.3 98 0.2 NW 6 7 3 4 1012.7 1012.6 6.8
17/08:30am 24.3 29.0 24.0 98 0.2 NW 6 7 3 4 1012.6 1012.5 6.8
17/08:00am 23.8 29.5 23.8 100 0.0 CALM 0 0 0 0 1012.3 1012.2 6.8
17/07:30am 23.4 27.8 23.4 100 0.0 NW 6 7 3 4 1012.1 1012.0 6.8
17/07:00am 23.2 27.4 23.2 100 0.0 NW 6 6 3 3 1011.8 1011.7 6.8
17/06:30am 23.2 28.6 23.2 100 0.0 CALM 0 6 0 3 1011.3 1011.2 6.8
17/06:00am 23.1 28.4 23.1 100 0.0 CALM 0 0 0 0 1010.5 1010.4 6.8
17/05:30am 23.3 28.7 23.3 100 0.0 CALM 0 0 0 0 1010.0 1009.9 6.8
17/05:00am 23.3 28.7 23.3 100 0.0 CALM 0 0 0 0 1009.8 1009.7 6.8
17/04:30am 23.4 28.9 23.4 100 0.0 CALM 0 0 0 0 1009.6 1009.5 6.8
17/04:00am 23.5 29.1 23.5 100 0.0 CALM 0 0 0 0 1009.3 1009.2 6.8
17/03:30am 23.6 29.2 23.6 100 0.0 CALM 0 0 0 0 1009.3 1009.2 6.8
17/03:00am 23.7 29.4 23.7 100 0.0 CALM 0 0 0 0 1009.2 1009.1 6.8
17/02:30am 23.8 29.5 23.8 100 0.0 CALM 0 0 0 0 1009.3 1009.2 6.8
17/02:00am 24.0 29.7 23.8 99 0.1 CALM 0 0 0 0 1009.8 1009.7 6.8
17/01:30am 24.0 28.6 23.8 99 0.1 WNW 6 7 3 4 1009.6 1009.5 6.8
17/01:00am 24.0 29.7 23.8 99 0.1 CALM 0 0 0 0 1009.8 1009.7 6.8
17/12:30am 24.2 30.0 24.0 99 0.1 CALM 0 0 0 0 1010.4 1010.3 6.8
17/12:00am 24.1 29.9 23.9 99 0.1 CALM 0 0 0 0 1010.6 1010.5 6.8
 
Date/Time
EST
Temp
°C
App
Temp
°C
Dew
Point
°C
Rel
Hum
%
Delta-T
°C
Wind Press
QNH
hPa
Press
MSL
hPa
Rain since
9am
mm
Dir  Spd
km/h
Gust
km/h
Spd
kts
Gust
kts
16/11:30pm 24.1 29.9 23.9 99 0.1 CALM 0 0 0 0 1010.7 1010.6 6.8
16/11:00pm 24.0 29.0 23.8 99 0.1 NNW 4 6 2 3 1010.7 1010.6 6.8
16/10:30pm 24.3 30.2 24.1 99 0.1 CALM 0 0 0 0 1010.6 1010.5 6.8
16/10:00pm 24.4 29.2 24.2 99 0.1 N 6 6 3 3 1010.6 1010.5 6.8
16/09:30pm 24.3 29.4 24.1 99 0.1 NNW 4 7 2 4 1010.3 1010.2 6.8
16/09:00pm 24.6 30.6 24.3 98 0.2 CALM 0 7 0 4 1009.9 1009.8 6.8
16/08:30pm 24.7 30.7 24.2 97 0.3 CALM 0 0 0 0 1009.7 1009.6 6.8
16/08:00pm 24.9 29.8 24.4 97 0.3 NW 6 7 3 4 1009.5 1009.4 6.8
16/07:30pm 25.0 30.6 24.3 96 0.5 N 2 7 1 4 1009.3 1009.2 6.8
16/07:00pm 25.1 30.0 24.4 96 0.5 N 6 7 3 4 1008.7 1008.6 6.8
16/06:30pm 24.8 30.2 23.8 94 0.7 WSW 2 6 1 3 1008.2 1008.1 6.6
16/06:00pm 24.7 29.5 24.2 97 0.3 WNW 6 7 3 4 1007.9 1007.8 6.2
16/05:30pm 24.6 28.9 24.3 98 0.2 NW 9 13 5 7 1007.8 1007.7 5.4
16/05:00pm 24.9 27.3 23.7 93 0.8 NNW 17 24 9 13 1007.6 1007.5 3.2
16/04:30pm 28.2 33.4 24.2 79 2.8 W 4 9 2 5 1006.7 1006.6 0.0
16/04:00pm 28.2 31.6 23.3 75 3.4 W 11 19 6 10 1006.2 1006.1 0.0
16/03:30pm 31.1 34.6 23.5 64 5.3 NW 11 17 6 9 1006.0 1005.9 0.0
16/03:00pm 32.1 35.1 23.3 59 6.1 N 13 20 7 11 1005.8 1005.7 0.0
16/02:30pm 32.9 36.1 24.4 61 6.0 N 15 24 8 13 1005.8 1005.7 0.0
16/02:00pm 32.5 35.6 24.8 64 5.4 N 17 24 9 13 1006.3 1006.2 0.0
16/01:30pm 32.3 35.0 23.5 59 6.1 N 15 24 8 13 1007.0 1006.9 0.0
16/01:00pm 32.2 35.1 24.5 64 5.4 NNE 17 26 9 14 1007.2 1007.1 0.0
16/12:30pm 31.7 35.4 26.3 73 3.9 E 19 26 10 14 1007.9 1007.8 0.0
16/12:00pm 31.8 35.2 25.9 71 4.2 ENE 19 28 10 15 1008.2 1008.1 0.0
16/11:30am 32.4 36.2 23.4 59 6.2 NNW 9 17 5 9 1008.5 1008.4 0.0
16/11:00am 31.5 35.5 24.4 66 5.0 N 11 17 6 9 1008.8 1008.7 0.0
16/10:30am 30.7 34.2 23.6 66 4.9 N 11 15 6 8 1009.0 1008.9 0.0
16/10:00am 30.4 36.6 25.2 74 3.7 NW 2 9 1 5 1009.3 1009.2 0.0
16/09:30am 28.9 35.0 24.5 77 3.1 CALM 0 6 0 3 1009.4 1009.3 0.0
16/09:00am 28.3 34.3 24.3 79 2.8 CALM 0 6 0 3 1009.3 1009.2 0.0
16/08:30am 26.5 31.5 24.5 89 1.4 W 6 9 3 5 1009.1 1009.0 0.0
16/08:00am 25.4 31.8 24.9 97 0.3 CALM 0 0 0 0 1009.0 1008.9 0.0
16/07:30am 24.7 30.8 24.5 99 0.1 CALM 0 0 0 0 1008.7 1008.6 0.0
16/07:00am 24.2 30.2 24.2 100 0.0 CALM 0 6 0 3 1008.5 1008.4 0.0
16/06:30am 24.1 29.1 23.9 99 0.1 WNW 4 6 2 3 1008.1 1008.0 0.0
16/06:00am 24.3 30.2 24.1 99 0.1 CALM 0 0 0 0 1007.8 1007.7 0.0
16/05:30am 24.4 30.4 24.2 99 0.1 CALM 0 0 0 0 1007.6 1007.5 0.0
16/05:00am 24.3 30.2 24.1 99 0.1 CALM 0 0 0 0 1007.2 1007.1 0.0
16/04:52am 24.3 29.8 24.1 99 0.1 NW 2 6 1 3 1007.1 1007.0 0.0
16/04:31am 24.5 30.1 24.3 99 0.1 NNW 2 7 1 4 1007.2 1007.1 0.0
16/04:30am 24.5 30.1 24.3 99 0.1 NNW 2 7 1 4 1007.2 1007.1 0.0
16/04:00am 24.6 30.6 24.3 98 0.2 CALM 0 0 0 0 1006.9 1006.8 0.0
16/03:30am 24.4 30.3 24.1 98 0.2 CALM 0 0 0 0 1007.2 1007.1 0.0
16/03:00am 24.5 30.1 24.3 99 0.1 NNW 2 7 1 4 1007.0 1006.9 0.0
16/02:30am 24.8 30.9 24.5 98 0.2 CALM 0 0 0 0 1007.5 1007.4 0.0
16/02:11am 25.0 31.3 24.7 98 0.2 CALM 0 0 0 0 1007.6 1007.5 0.0
16/02:00am 25.1 31.3 24.6 97 0.3 CALM 0 0 0 0 1007.8 1007.7 0.0
16/01:55am 25.2 31.5 24.7 97 0.3 CALM 0 0 0 0 1007.8 1007.7 0.0
16/01:30am 25.1 30.9 24.6 97 0.3 ESE 2 6 1 3 1007.9 1007.8 0.0
16/01:00am 24.8 30.9 24.5 98 0.2 CALM 0 0 0 0 1008.4 1008.3 0.0
16/12:30am 25.0 31.3 24.7 98 0.2 CALM 0 0 0 0 1008.7 1008.6 0.0
16/12:00am 25.0 30.1 24.7 98 0.2 NNW 6 6 3 3 1008.7 1008.6 0.0
 
Date/Time
EST
Temp
°C
App
Temp
°C
Dew
Point
°C
Rel
Hum
%
Delta-T
°C
Wind Press
QNH
hPa
Press
MSL
hPa
Rain since
9am
mm
Dir  Spd
km/h
Gust
km/h
Spd
kts
Gust
kts
15/11:30pm 25.1 30.2 24.6 97 0.3 WNW 6 7 3 4 1009.1 1009.0 0.0
15/11:00pm 25.5 30.8 25.0 97 0.3 WNW 6 7 3 4 1009.4 1009.3 0.0
15/10:30pm 25.7 32.2 25.0 96 0.5 CALM 0 0 0 0 1009.2 1009.1 0.0
15/10:00pm 26.1 32.7 25.2 95 0.6 CALM 0 0 0 0 1008.8 1008.7 0.0
15/09:30pm 25.9 32.4 25.0 95 0.6 CALM 0 0 0 0 1008.4 1008.3 0.0
15/09:00pm 26.0 32.5 25.1 95 0.6 CALM 0 0 0 0 1007.9 1007.8 0.0
15/08:30pm 26.4 32.0 25.4 94 0.7 NW 6 9 3 5 1007.9 1007.8 0.0
15/08:00pm 27.1 33.9 25.5 91 1.1 CALM 0 0 0 0 1007.7 1007.6 0.0
15/07:30pm 27.1 32.6 25.3 90 1.3 N 6 7 3 4 1007.3 1007.2 0.0
15/07:00pm 28.0 33.8 25.2 85 2.0 NW 4 9 2 5 1007.3 1007.2 0.0
15/06:30pm 28.5 33.3 24.5 79 2.8 ENE 7 9 4 5 1007.2 1007.1 0.0
15/06:00pm 29.1 33.8 24.9 78 2.9 E 9 13 5 7 1007.0 1006.9 0.0
15/05:30pm 29.5 33.6 23.9 72 3.9 E 9 13 5 7 1006.8 1006.7 0.0
15/05:00pm 30.1 33.7 23.0 65 4.9 ENE 9 13 5 7 1006.3 1006.2 0.0
15/04:30pm 30.2 33.6 23.4 67 4.7 ENE 11 17 6 9 1006.1 1006.0 0.0
15/04:00pm 30.8 33.3 23.2 64 5.2 ENE 15 20 8 11 1006.1 1006.0 0.0
15/03:30pm 30.9 32.6 23.0 62 5.4 ENE 19 26 10 14 1006.4 1006.3 0.0
15/03:00pm 31.2 33.6 23.6 64 5.3 ENE 17 22 9 12 1006.5 1006.4 0.0
15/02:30pm 31.4 34.8 24.0 65 5.2 ENE 13 19 7 10 1006.8 1006.7 0.0
15/02:00pm 31.4 35.1 24.5 67 4.8 E 13 19 7 10 1007.4 1007.3 0.0
15/01:30pm 31.6 35.8 24.7 67 4.8 E 11 17 6 9 1007.8 1007.7 0.0
15/01:00pm 31.5 35.2 23.3 61 5.7 ENE 9 15 5 8 1008.1 1008.0 0.0
15/12:30pm 31.0 34.5 22.9 62 5.6 E 9 11 5 6 1008.7 1008.6 0.0
15/12:00pm 31.3 36.9 24.2 66 5.0 ENE 2 6 1 3 1009.3 1009.2 0.0
15/11:30am 30.8 36.5 24.4 68 4.5 SE 2 6 1 3 1009.3 1009.2 0.0
15/11:00am 30.1 34.5 23.5 67 4.6 SSE 6 13 3 7 1009.2 1009.1 0.0
15/10:30am 29.7 36.0 24.8 75 3.4 CALM 0 7 0 4 1009.1 1009.0 0.0
15/10:00am 29.1 35.5 25.5 81 2.5 W 2 7 1 4 1009.0 1008.9 0.0
15/09:30am 28.1 34.4 24.7 82 2.4 CALM 0 0 0 0 1009.2 1009.1 0.0
15/09:00am 27.1 33.0 25.3 90 1.3 SSW 4 7 2 4 1009.3 1009.2 17.6
15/08:30am 25.9 31.3 24.5 92 1.0 S 4 7 2 4 1009.4 1009.3 17.6
15/08:00am 25.3 31.4 24.4 95 0.6 CALM 0 0 0 0 1009.4 1009.3 17.6
15/07:30am 24.7 30.8 24.5 99 0.1 CALM 0 0 0 0 1009.0 1008.9 17.6
15/07:00am 24.3 30.2 24.1 99 0.1 CALM 0 0 0 0 1008.7 1008.6 17.6
15/06:30am 24.2 30.0 24.0 99 0.1 CALM 0 0 0 0 1008.3 1008.2 17.6
15/06:00am 24.3 30.2 24.1 99 0.1 CALM 0 0 0 0 1008.0 1007.9 17.6
15/05:30am 24.3 29.8 24.1 99 0.1 ENE 2 7 1 4 1007.8 1007.7 17.6
15/05:00am 24.4 29.6 24.2 99 0.1 N 4 6 2 3 1007.2 1007.1 17.6
15/04:30am 24.4 28.4 24.4 100 0.0 WSW 11 19 6 10 1007.2 1007.1 17.6
15/04:00am 24.7 29.6 24.7 100 0.0 NW 7 11 4 6 1007.8 1007.7 17.4
15/03:30am 24.5 30.3 24.5 100 0.0 NNW 2 7 1 4 1008.5 1008.4 17.0
15/03:21am 24.5 29.5 24.5 100 0.0 NNW 6 9 3 5 1008.6 1008.5 17.0
15/03:00am 24.6 29.5 24.6 100 0.0 NW 7 11 4 6 1008.5 1008.4 17.0
15/02:30am 24.8 30.0 24.8 100 0.0 NW 6 7 3 4 1008.9 1008.8 17.0
15/02:22am 24.7 29.7 24.5 99 0.1 NW 6 7 3 4 1008.9 1008.8 17.0
15/02:00am 24.9 29.8 24.7 99 0.1 WNW 7 11 4 6 1008.9 1008.8 17.0
15/01:30am 24.9 30.6 24.4 97 0.3 E 2 7 1 4 1009.2 1009.1 16.8
15/01:00am 25.0 31.3 24.7 98 0.2 CALM 0 2 0 1 1009.4 1009.3 16.8
15/12:30am 25.4 31.4 24.9 97 0.3 NNE 2 7 1 4 1009.8 1009.7 16.8
15/12:00am 25.4 31.4 24.9 97 0.3 SE 2 6 1 3 1010.2 1010.1 16.8
 
Date/Time
EST
Temp
°C
App
Temp
°C
Dew
Point
°C
Rel
Hum
%
Delta-T
°C
Wind Press
QNH
hPa
Press
MSL
hPa
Rain since
9am
mm
Dir  Spd
km/h
Gust
km/h
Spd
kts
Gust
kts
14/11:30pm 25.3 31.5 24.6 96 0.5 CALM 0 6 0 3 1010.4 1010.3 16.8
14/11:00pm 25.3 31.4 24.4 95 0.6 CALM 0 6 0 3 1010.5 1010.4 16.8
14/10:30pm 25.3 30.1 24.4 95 0.6 W 7 11 4 6 1010.4 1010.3 16.6
14/10:00pm 25.6 31.1 25.3 98 0.2 W 6 9 3 5 1010.3 1010.2 16.6
14/09:30pm 25.4 31.5 25.1 98 0.2 SSE 2 6 1 3 1009.9 1009.8 16.6
14/09:00pm 25.2 31.2 24.9 98 0.2 N 2 7 1 4 1009.6 1009.5 16.6
14/08:30pm 25.1 30.0 24.4 96 0.5 N 6 7 3 4 1009.9 1009.8 11.0
14/08:00pm 25.7 29.9 24.7 94 0.7 NNW 11 17 6 9 1009.8 1009.7 0.8
14/07:30pm 25.9 31.2 24.9 94 0.7 NNW 6 6 3 3 1009.4 1009.3 0.4
14/07:00pm 26.1 30.9 24.5 91 1.1 WNW 7 11 4 6 1009.0 1008.9 0.4

Other Formats:

Comma delimited format used in spreadsheet applications
http://www.bom.gov.au/fwo/IDQ60801/IDQ60801.94186.axf

JavaScript Object Notation format (JSON) in row-major order
http://www.bom.gov.au/fwo/IDQ60801/IDQ60801.94186.json